createdAt,value
2019-04-10T08:15:06.929Z,28
2019-04-10T08:20:09.981Z,28
2019-04-10T08:25:11.308Z,27
2019-04-10T08:30:13.999Z,26
2019-04-10T08:35:17.346Z,26
2019-04-10T08:40:19.072Z,25
2019-04-10T08:45:21.150Z,25
2019-04-10T08:50:23.589Z,25
2019-04-10T08:55:26.162Z,21
2019-04-10T09:00:28.913Z,22
2019-04-10T09:05:31.098Z,24
2019-04-10T09:10:34.360Z,21
2019-04-10T09:15:36.096Z,21
2019-04-10T09:20:38.482Z,21
2019-04-10T09:25:41.554Z,20
2019-04-10T09:30:43.031Z,19
2019-04-10T09:35:45.454Z,19
2019-04-10T09:40:48.808Z,18
2019-04-10T09:45:51.457Z,17
2019-04-10T09:55:55.319Z,16
2019-04-10T10:00:58.463Z,17
2019-04-10T10:06:00.728Z,16
2019-04-10T10:11:02.537Z,16
2019-04-10T10:16:06.376Z,17
2019-04-10T10:21:08.173Z,16
2019-04-10T10:26:10.020Z,17
2019-04-10T10:31:12.282Z,17
2019-04-10T10:36:15.811Z,17
2019-04-10T10:41:18.096Z,16
2019-04-10T10:46:19.926Z,16
2019-04-10T10:51:22.542Z,16
2019-04-10T10:56:24.654Z,15
2019-04-10T11:01:27.522Z,13
2019-04-10T11:11:32.553Z,15
2019-04-10T11:16:34.271Z,13
2019-04-10T11:21:36.776Z,13
2019-04-10T11:26:39.969Z,14
2019-04-10T11:31:41.815Z,13
2019-04-10T11:36:46.045Z,12
2019-04-10T11:41:49.035Z,13
2019-04-10T11:46:49.376Z,13
2019-04-10T11:51:53.445Z,12
2019-04-10T11:56:57.922Z,13
2019-04-10T12:02:00.611Z,12
2019-04-10T12:07:01.335Z,11
2019-04-10T12:12:01.519Z,12
2019-04-10T12:17:03.743Z,11
2019-04-10T12:22:06.088Z,11
2019-04-10T12:27:09.140Z,11
2019-04-10T12:32:10.833Z,11
2019-04-10T12:37:13.352Z,11
2019-04-10T12:42:16.474Z,11
2019-04-10T12:47:18.170Z,10
2019-04-10T12:52:20.706Z,11
2019-04-10T12:57:23.180Z,11
2019-04-10T13:02:26.031Z,10
2019-04-10T13:07:28.086Z,10
2019-04-10T13:12:31.268Z,10
2019-04-10T13:17:33.158Z,10
2019-04-10T13:22:35.962Z,10
2019-04-10T13:27:37.703Z,10
2019-04-10T13:32:40.357Z,10
2019-04-10T13:37:43.447Z,10
2019-04-10T13:42:45.412Z,9
2019-04-10T13:47:48.464Z,10
2019-04-10T13:52:52.194Z,10
2019-04-10T13:57:52.981Z,10
2019-04-10T14:02:54.768Z,12
2019-04-10T14:07:57.697Z,10
2019-04-10T14:12:59.772Z,12
2019-04-10T14:18:02.135Z,10
2019-04-10T14:23:04.595Z,12
2019-04-10T14:28:07.046Z,13
2019-04-10T14:33:10.492Z,10
2019-04-10T14:38:12.022Z,11
2019-04-10T14:43:14.653Z,12
2019-04-10T14:48:18.172Z,11
2019-04-10T14:53:19.345Z,10
2019-04-10T14:58:27.379Z,11
2019-04-10T15:03:24.356Z,10
2019-04-10T15:08:27.870Z,11
2019-04-10T15:13:29.658Z,10
2019-04-10T15:18:31.379Z,9
2019-04-10T15:23:33.832Z,9
2019-04-10T15:28:36.310Z,10
2019-04-10T15:33:39.390Z,8
2019-04-10T15:38:42.140Z,9
2019-04-10T15:43:43.616Z,10
2019-04-10T15:53:49.390Z,9
2019-04-10T15:58:52.112Z,9
2019-04-10T16:03:54.421Z,8
2019-04-10T16:08:56.710Z,9
2019-04-10T16:13:59.027Z,8
2019-04-10T16:19:02.103Z,8
2019-04-10T16:24:03.174Z,8
2019-04-10T16:29:05.574Z,7
2019-04-10T16:34:09.162Z,8
2019-04-10T16:39:11.367Z,9
2019-04-10T16:44:13.079Z,8
2019-04-10T16:49:15.477Z,9
2019-04-10T16:54:20.027Z,8
2019-04-10T16:59:21.380Z,10
2019-04-10T17:04:23.052Z,8
2019-04-10T17:09:25.131Z,10
2019-04-10T17:14:27.557Z,8
2019-04-10T17:19:30.806Z,10
2019-04-10T17:24:33.448Z,8
2019-04-10T17:29:35.196Z,9
2019-04-10T17:34:37.321Z,8
2019-04-10T17:39:39.807Z,8
2019-04-10T17:44:42.280Z,20
2019-04-10T17:49:44.643Z,8
2019-04-10T17:54:47.154Z,8
2019-04-10T17:59:50.965Z,8
2019-04-10T18:09:54.418Z,8
2019-04-10T18:14:57.600Z,10
2019-04-10T18:19:59.245Z,10
2019-04-10T18:25:01.803Z,9
2019-04-10T18:30:04.495Z,11
2019-04-10T18:35:06.796Z,9
2019-04-10T18:40:09.027Z,8
2019-04-10T18:45:11.609Z,9
2019-04-10T18:55:16.467Z,10
2019-04-10T19:00:19.114Z,8
2019-04-10T19:05:21.436Z,12
2019-04-10T19:10:23.765Z,11
2019-04-10T19:15:26.199Z,11
2019-04-10T19:20:29.077Z,11
2019-04-10T19:25:31.012Z,10
2019-04-10T19:30:33.900Z,10
2019-04-10T19:35:37.166Z,11
2019-04-10T19:40:38.762Z,12
2019-04-10T19:45:41.858Z,14
2019-04-10T19:50:43.679Z,15
2019-04-10T19:55:46.475Z,14
